sensor_id;sensor_type;location;lat;lon;timestamp;P1;durP1;ratioP1;P2;durP2;ratioP2
67544;SDS011;54380;47.770;11.150;2023-04-15T00:02:23;5.38;;;0.50;;
67544;SDS011;54380;47.770;11.150;2023-04-15T00:04:49;7.53;;;0.70;;
67544;SDS011;54380;47.770;11.150;2023-04-15T00:07:16;2.88;;;0.40;;
67544;SDS011;54380;47.770;11.150;2023-04-15T00:09:43;8.57;;;1.00;;
67544;SDS011;54380;47.770;11.150;2023-04-15T00:12:10;7.70;;;1.13;;
67544;SDS011;54380;47.770;11.150;2023-04-15T00:14:39;5.53;;;1.00;;
67544;SDS011;54380;47.770;11.150;2023-04-15T00:17:06;6.20;;;0.60;;
67544;SDS011;54380;47.770;11.150;2023-04-15T00:19:32;5.72;;;0.70;;
67544;SDS011;54380;47.770;11.150;2023-04-15T00:21:59;4.93;;;1.15;;
67544;SDS011;54380;47.770;11.150;2023-04-15T00:24:26;3.88;;;0.52;;
67544;SDS011;54380;47.770;11.150;2023-04-15T00:26:53;4.53;;;0.65;;
67544;SDS011;54380;47.770;11.150;2023-04-15T00:29:20;5.85;;;0.50;;
67544;SDS011;54380;47.770;11.150;2023-04-15T00:31:48;5.13;;;0.55;;
67544;SDS011;54380;47.770;11.150;2023-04-15T00:34:15;5.38;;;1.38;;
67544;SDS011;54380;47.770;11.150;2023-04-15T00:36:42;6.60;;;0.68;;
67544;SDS011;54380;47.770;11.150;2023-04-15T00:39:09;3.38;;;0.50;;
67544;SDS011;54380;47.770;11.150;2023-04-15T00:41:36;3.55;;;0.50;;
67544;SDS011;54380;47.770;11.150;2023-04-15T00:44:05;4.63;;;0.40;;
67544;SDS011;54380;47.770;11.150;2023-04-15T00:46:32;4.10;;;0.45;;
67544;SDS011;54380;47.770;11.150;2023-04-15T00:49:03;4.53;;;0.60;;
67544;SDS011;54380;47.770;11.150;2023-04-15T00:51:31;4.88;;;0.50;;
67544;SDS011;54380;47.770;11.150;2023-04-15T00:53:58;4.38;;;0.50;;
67544;SDS011;54380;47.770;11.150;2023-04-15T00:56:26;4.75;;;0.50;;
67544;SDS011;54380;47.770;11.150;2023-04-15T00:58:55;4.00;;;0.43;;
67544;SDS011;54380;47.770;11.150;2023-04-15T01:01:22;5.40;;;0.60;;
67544;SDS011;54380;47.770;11.150;2023-04-15T01:03:50;4.13;;;0.30;;
67544;SDS011;54380;47.770;11.150;2023-04-15T01:06:19;3.47;;;0.40;;
67544;SDS011;54380;47.770;11.150;2023-04-15T01:08:46;4.55;;;0.60;;
67544;SDS011;54380;47.770;11.150;2023-04-15T01:11:13;5.97;;;0.70;;
67544;SDS011;54380;47.770;11.150;2023-04-15T01:13:41;2.78;;;0.32;;
67544;SDS011;54380;47.770;11.150;2023-04-15T01:16:08;6.03;;;0.50;;
67544;SDS011;54380;47.770;11.150;2023-04-15T01:18:35;1.88;;;0.30;;
67544;SDS011;54380;47.770;11.150;2023-04-15T01:21:05;4.55;;;0.50;;
67544;SDS011;54380;47.770;11.150;2023-04-15T01:23:34;3.20;;;0.40;;
67544;SDS011;54380;47.770;11.150;2023-04-15T01:26:07;4.70;;;0.60;;
67544;SDS011;54380;47.770;11.150;2023-04-15T01:28:37;1.85;;;0.30;;
67544;SDS011;54380;47.770;11.150;2023-04-15T01:31:05;3.00;;;0.40;;
67544;SDS011;54380;47.770;11.150;2023-04-15T01:33:35;4.30;;;0.40;;
67544;SDS011;54380;47.770;11.150;2023-04-15T01:36:02;6.07;;;0.47;;
67544;SDS011;54380;47.770;11.150;2023-04-15T01:38:30;6.47;;;0.70;;
67544;SDS011;54380;47.770;11.150;2023-04-15T01:40:58;4.15;;;0.50;;
67544;SDS011;54380;47.770;11.150;2023-04-15T01:43:26;3.50;;;0.52;;
67544;SDS011;54380;47.770;11.150;2023-04-15T01:45:53;4.68;;;0.45;;
67544;SDS011;54380;47.770;11.150;2023-04-15T01:48:21;5.38;;;0.60;;
67544;SDS011;54380;47.770;11.150;2023-04-15T01:50:48;5.18;;;0.60;;
67544;SDS011;54380;47.770;11.150;2023-04-15T01:53:15;4.68;;;0.52;;
67544;SDS011;54380;47.770;11.150;2023-04-15T01:55:42;4.20;;;0.47;;
67544;SDS011;54380;47.770;11.150;2023-04-15T01:58:09;5.78;;;0.75;;
67544;SDS011;54380;47.770;11.150;2023-04-15T02:00:37;3.08;;;0.47;;
67544;SDS011;54380;47.770;11.150;2023-04-15T02:03:04;6.18;;;0.50;;
67544;SDS011;54380;47.770;11.150;2023-04-15T02:05:31;4.55;;;0.50;;
67544;SDS011;54380;47.770;11.150;2023-04-15T02:07:59;3.83;;;0.50;;
67544;SDS011;54380;47.770;11.150;2023-04-15T02:10:25;5.88;;;0.60;;
67544;SDS011;54380;47.770;11.150;2023-04-15T02:12:53;3.70;;;0.40;;
67544;SDS011;54380;47.770;11.150;2023-04-15T02:15:20;3.65;;;0.82;;
67544;SDS011;54380;47.770;11.150;2023-04-15T02:17:50;5.30;;;0.80;;
67544;SDS011;54380;47.770;11.150;2023-04-15T02:20:18;4.45;;;0.40;;
67544;SDS011;54380;47.770;11.150;2023-04-15T02:22:46;3.03;;;0.35;;
67544;SDS011;54380;47.770;11.150;2023-04-15T02:25:14;6.35;;;0.70;;
67544;SDS011;54380;47.770;11.150;2023-04-15T02:27:42;4.13;;;0.50;;
67544;SDS011;54380;47.770;11.150;2023-04-15T02:30:12;5.20;;;0.70;;
67544;SDS011;54380;47.770;11.150;2023-04-15T02:32:39;6.47;;;0.40;;
67544;SDS011;54380;47.770;11.150;2023-04-15T02:35:08;3.08;;;0.65;;
67544;SDS011;54380;47.770;11.150;2023-04-15T02:37:35;6.30;;;0.70;;
67544;SDS011;54380;47.770;11.150;2023-04-15T02:40:08;2.70;;;0.30;;
67544;SDS011;54380;47.770;11.150;2023-04-15T02:42:37;7.88;;;0.90;;
67544;SDS011;54380;47.770;11.150;2023-04-15T02:45:06;3.85;;;0.45;;
67544;SDS011;54380;47.770;11.150;2023-04-15T02:47:34;3.60;;;0.50;;
67544;SDS011;54380;47.770;11.150;2023-04-15T02:50:03;3.95;;;0.40;;
67544;SDS011;54380;47.770;11.150;2023-04-15T02:52:32;10.75;;;0.75;;
67544;SDS011;54380;47.770;11.150;2023-04-15T02:54:59;4.38;;;0.40;;
67544;SDS011;54380;47.770;11.150;2023-04-15T02:57:28;4.82;;;0.50;;
67544;SDS011;54380;47.770;11.150;2023-04-15T02:59:58;5.28;;;0.70;;
67544;SDS011;54380;47.770;11.150;2023-04-15T03:02:24;4.72;;;0.40;;
67544;SDS011;54380;47.770;11.150;2023-04-15T03:04:52;4.55;;;0.52;;
67544;SDS011;54380;47.770;11.150;2023-04-15T03:07:20;5.38;;;0.40;;
67544;SDS011;54380;47.770;11.150;2023-04-15T03:09:49;9.45;;;0.43;;
67544;SDS011;54380;47.770;11.150;2023-04-15T03:12:15;6.35;;;0.82;;
67544;SDS011;54380;47.770;11.150;2023-04-15T03:14:43;7.45;;;1.00;;
67544;SDS011;54380;47.770;11.150;2023-04-15T03:17:10;6.40;;;0.93;;
67544;SDS011;54380;47.770;11.150;2023-04-15T03:19:37;4.93;;;0.52;;
67544;SDS011;54380;47.770;11.150;2023-04-15T03:22:04;4.70;;;0.60;;
67544;SDS011;54380;47.770;11.150;2023-04-15T03:24:31;4.63;;;0.73;;
67544;SDS011;54380;47.770;11.150;2023-04-15T03:26:59;5.63;;;0.63;;
67544;SDS011;54380;47.770;11.150;2023-04-15T03:29:27;8.38;;;0.80;;
67544;SDS011;54380;47.770;11.150;2023-04-15T03:31:54;3.80;;;0.43;;
67544;SDS011;54380;47.770;11.150;2023-04-15T03:34:21;4.28;;;0.50;;
67544;SDS011;54380;47.770;11.150;2023-04-15T03:36:48;4.18;;;0.47;;
67544;SDS011;54380;47.770;11.150;2023-04-15T03:39:15;7.22;;;0.70;;
67544;SDS011;54380;47.770;11.150;2023-04-15T03:41:42;5.30;;;0.57;;
67544;SDS011;54380;47.770;11.150;2023-04-15T03:44:10;5.68;;;0.52;;
67544;SDS011;54380;47.770;11.150;2023-04-15T03:46:37;5.25;;;0.93;;
67544;SDS011;54380;47.770;11.150;2023-04-15T03:49:05;3.08;;;0.60;;
67544;SDS011;54380;47.770;11.150;2023-04-15T03:51:32;3.88;;;0.50;;
67544;SDS011;54380;47.770;11.150;2023-04-15T03:53:59;3.95;;;0.40;;
67544;SDS011;54380;47.770;11.150;2023-04-15T03:56:25;6.40;;;0.50;;
67544;SDS011;54380;47.770;11.150;2023-04-15T03:58:52;3.65;;;0.60;;
67544;SDS011;54380;47.770;11.150;2023-04-15T04:01:21;5.32;;;0.70;;
67544;SDS011;54380;47.770;11.150;2023-04-15T04:03:48;6.43;;;0.60;;
67544;SDS011;54380;47.770;11.150;2023-04-15T04:06:15;4.60;;;0.50;;
67544;SDS011;54380;47.770;11.150;2023-04-15T04:08:42;4.32;;;0.55;;
67544;SDS011;54380;47.770;11.150;2023-04-15T04:11:09;5.03;;;0.90;;
67544;SDS011;54380;47.770;11.150;2023-04-15T04:13:35;4.15;;;0.70;;
67544;SDS011;54380;47.770;11.150;2023-04-15T04:16:02;3.95;;;0.63;;
67544;SDS011;54380;47.770;11.150;2023-04-15T04:18:32;6.75;;;0.50;;
67544;SDS011;54380;47.770;11.150;2023-04-15T04:20:58;5.32;;;0.57;;
67544;SDS011;54380;47.770;11.150;2023-04-15T04:23:25;4.95;;;0.80;;
67544;SDS011;54380;47.770;11.150;2023-04-15T04:25:52;4.55;;;0.57;;
67544;SDS011;54380;47.770;11.150;2023-04-15T04:28:19;6.95;;;1.25;;
67544;SDS011;54380;47.770;11.150;2023-04-15T04:30:46;4.72;;;0.60;;
67544;SDS011;54380;47.770;11.150;2023-04-15T04:33:13;3.17;;;0.70;;
67544;SDS011;54380;47.770;11.150;2023-04-15T04:35:41;2.85;;;0.32;;
67544;SDS011;54380;47.770;11.150;2023-04-15T04:38:07;5.50;;;0.82;;
67544;SDS011;54380;47.770;11.150;2023-04-15T04:40:34;6.05;;;1.08;;
67544;SDS011;54380;47.770;11.150;2023-04-15T04:43:01;3.92;;;0.50;;
67544;SDS011;54380;47.770;11.150;2023-04-15T04:45:28;7.47;;;1.13;;
67544;SDS011;54380;47.770;11.150;2023-04-15T04:47:55;5.50;;;1.05;;
67544;SDS011;54380;47.770;11.150;2023-04-15T04:50:21;8.85;;;0.80;;
67544;SDS011;54380;47.770;11.150;2023-04-15T04:52:50;5.15;;;0.77;;
67544;SDS011;54380;47.770;11.150;2023-04-15T04:55:17;5.47;;;0.68;;
67544;SDS011;54380;47.770;11.150;2023-04-15T04:57:44;3.75;;;0.57;;
67544;SDS011;54380;47.770;11.150;2023-04-15T05:00:11;5.53;;;0.65;;
67544;SDS011;54380;47.770;11.150;2023-04-15T05:02:39;7.88;;;0.95;;
67544;SDS011;54380;47.770;11.150;2023-04-15T05:05:08;7.68;;;0.70;;
67544;SDS011;54380;47.770;11.150;2023-04-15T05:07:35;6.97;;;0.70;;
67544;SDS011;54380;47.770;11.150;2023-04-15T05:10:04;5.10;;;0.63;;
67544;SDS011;54380;47.770;11.150;2023-04-15T05:12:31;4.80;;;0.77;;
67544;SDS011;54380;47.770;11.150;2023-04-15T05:14:58;5.10;;;0.75;;
67544;SDS011;54380;47.770;11.150;2023-04-15T05:17:25;5.38;;;0.88;;
67544;SDS011;54380;47.770;11.150;2023-04-15T05:19:52;5.65;;;0.82;;
67544;SDS011;54380;47.770;11.150;2023-04-15T05:22:19;6.38;;;0.90;;
67544;SDS011;54380;47.770;11.150;2023-04-15T05:24:46;6.82;;;0.90;;
67544;SDS011;54380;47.770;11.150;2023-04-15T05:27:14;4.40;;;0.63;;
67544;SDS011;54380;47.770;11.150;2023-04-15T05:29:41;6.00;;;0.73;;
67544;SDS011;54380;47.770;11.150;2023-04-15T05:32:08;6.13;;;0.90;;
67544;SDS011;54380;47.770;11.150;2023-04-15T05:34:34;5.72;;;0.70;;
67544;SDS011;54380;47.770;11.150;2023-04-15T05:37:01;9.52;;;1.30;;
67544;SDS011;54380;47.770;11.150;2023-04-15T05:39:28;9.05;;;1.35;;
67544;SDS011;54380;47.770;11.150;2023-04-15T05:41:55;7.88;;;0.80;;
67544;SDS011;54380;47.770;11.150;2023-04-15T05:44:24;9.18;;;1.38;;
67544;SDS011;54380;47.770;11.150;2023-04-15T05:46:51;9.15;;;1.73;;
67544;SDS011;54380;47.770;11.150;2023-04-15T05:49:17;11.80;;;2.55;;
67544;SDS011;54380;47.770;11.150;2023-04-15T05:51:45;10.13;;;2.30;;
67544;SDS011;54380;47.770;11.150;2023-04-15T05:54:12;9.82;;;2.20;;
67544;SDS011;54380;47.770;11.150;2023-04-15T05:56:39;7.57;;;1.20;;
67544;SDS011;54380;47.770;11.150;2023-04-15T05:59:26;11.52;;;2.30;;
67544;SDS011;54380;47.770;11.150;2023-04-15T06:01:53;10.18;;;2.10;;
67544;SDS011;54380;47.770;11.150;2023-04-15T06:04:20;13.48;;;3.00;;
67544;SDS011;54380;47.770;11.150;2023-04-15T06:06:48;25.80;;;3.83;;
67544;SDS011;54380;47.770;11.150;2023-04-15T06:09:14;15.18;;;3.28;;
67544;SDS011;54380;47.770;11.150;2023-04-15T06:11:42;7.88;;;1.60;;
67544;SDS011;54380;47.770;11.150;2023-04-15T06:14:09;11.82;;;3.05;;
67544;SDS011;54380;47.770;11.150;2023-04-15T06:16:37;10.60;;;2.22;;
67544;SDS011;54380;47.770;11.150;2023-04-15T06:19:04;9.75;;;2.10;;
67544;SDS011;54380;47.770;11.150;2023-04-15T06:21:30;11.98;;;2.65;;
67544;SDS011;54380;47.770;11.150;2023-04-15T06:23:57;13.15;;;3.30;;
67544;SDS011;54380;47.770;11.150;2023-04-15T06:26:26;15.50;;;4.00;;
67544;SDS011;54380;47.770;11.150;2023-04-15T06:28:54;13.00;;;3.00;;
67544;SDS011;54380;47.770;11.150;2023-04-15T06:31:20;14.93;;;2.67;;
67544;SDS011;54380;47.770;11.150;2023-04-15T06:33:49;11.98;;;2.13;;
67544;SDS011;54380;47.770;11.150;2023-04-15T06:36:16;13.40;;;3.78;;
67544;SDS011;54380;47.770;11.150;2023-04-15T06:38:43;13.63;;;2.33;;
67544;SDS011;54380;47.770;11.150;2023-04-15T06:41:10;11.15;;;2.17;;
67544;SDS011;54380;47.770;11.150;2023-04-15T06:43:37;9.98;;;1.92;;
67544;SDS011;54380;47.770;11.150;2023-04-15T06:46:05;10.77;;;1.40;;
67544;SDS011;54380;47.770;11.150;2023-04-15T06:48:32;7.68;;;1.20;;
67544;SDS011;54380;47.770;11.150;2023-04-15T06:51:00;10.85;;;1.55;;
67544;SDS011;54380;47.770;11.150;2023-04-15T06:53:27;9.38;;;1.52;;
67544;SDS011;54380;47.770;11.150;2023-04-15T06:55:54;9.95;;;2.58;;
67544;SDS011;54380;47.770;11.150;2023-04-15T06:58:21;11.52;;;1.92;;
67544;SDS011;54380;47.770;11.150;2023-04-15T07:00:48;9.43;;;1.70;;
67544;SDS011;54380;47.770;11.150;2023-04-15T07:03:14;6.95;;;1.05;;
67544;SDS011;54380;47.770;11.150;2023-04-15T07:05:41;9.38;;;1.10;;
67544;SDS011;54380;47.770;11.150;2023-04-15T07:08:10;5.88;;;0.55;;
67544;SDS011;54380;47.770;11.150;2023-04-15T07:10:36;10.60;;;0.95;;
67544;SDS011;54380;47.770;11.150;2023-04-15T07:13:03;4.10;;;0.35;;
67544;SDS011;54380;47.770;11.150;2023-04-15T07:15:31;2.50;;;0.30;;
67544;SDS011;54380;47.770;11.150;2023-04-15T07:17:57;2.72;;;0.28;;
67544;SDS011;54380;47.770;11.150;2023-04-15T07:20:24;4.97;;;0.80;;
67544;SDS011;54380;47.770;11.150;2023-04-15T07:22:51;3.75;;;0.38;;
67544;SDS011;54380;47.770;11.150;2023-04-15T07:25:19;3.58;;;0.32;;
67544;SDS011;54380;47.770;11.150;2023-04-15T07:27:46;4.65;;;0.60;;
67544;SDS011;54380;47.770;11.150;2023-04-15T07:30:13;6.38;;;0.45;;
67544;SDS011;54380;47.770;11.150;2023-04-15T07:32:40;7.22;;;0.40;;
67544;SDS011;54380;47.770;11.150;2023-04-15T07:35:08;6.45;;;0.70;;
67544;SDS011;54380;47.770;11.150;2023-04-15T07:37:35;2.90;;;0.50;;
67544;SDS011;54380;47.770;11.150;2023-04-15T07:40:02;3.65;;;0.40;;
67544;SDS011;54380;47.770;11.150;2023-04-15T07:42:31;5.13;;;0.43;;
67544;SDS011;54380;47.770;11.150;2023-04-15T07:44:58;3.42;;;0.40;;
67544;SDS011;54380;47.770;11.150;2023-04-15T07:47:25;4.15;;;0.60;;
67544;SDS011;54380;47.770;11.150;2023-04-15T07:49:52;4.47;;;0.47;;
67544;SDS011;54380;47.770;11.150;2023-04-15T07:52:19;9.60;;;0.90;;
67544;SDS011;54380;47.770;11.150;2023-04-15T07:54:46;6.55;;;0.70;;
67544;SDS011;54380;47.770;11.150;2023-04-15T07:57:13;7.57;;;0.70;;
67544;SDS011;54380;47.770;11.150;2023-04-15T07:59:41;5.97;;;0.80;;
67544;SDS011;54380;47.770;11.150;2023-04-15T08:02:08;5.40;;;0.60;;
67544;SDS011;54380;47.770;11.150;2023-04-15T08:04:35;7.97;;;0.75;;
67544;SDS011;54380;47.770;11.150;2023-04-15T08:07:02;3.30;;;0.45;;
67544;SDS011;54380;47.770;11.150;2023-04-15T08:09:30;6.15;;;0.82;;
67544;SDS011;54380;47.770;11.150;2023-04-15T08:11:56;7.57;;;0.65;;
67544;SDS011;54380;47.770;11.150;2023-04-15T08:14:23;4.18;;;0.63;;
67544;SDS011;54380;47.770;11.150;2023-04-15T08:16:51;4.35;;;0.70;;
67544;SDS011;54380;47.770;11.150;2023-04-15T08:19:18;8.20;;;1.35;;
67544;SDS011;54380;47.770;11.150;2023-04-15T08:21:45;5.05;;;0.68;;
67544;SDS011;54380;47.770;11.150;2023-04-15T08:24:12;7.47;;;1.05;;
67544;SDS011;54380;47.770;11.150;2023-04-15T08:26:39;7.25;;;1.08;;
67544;SDS011;54380;47.770;11.150;2023-04-15T08:29:07;6.85;;;0.82;;
67544;SDS011;54380;47.770;11.150;2023-04-15T08:31:34;4.65;;;0.50;;
67544;SDS011;54380;47.770;11.150;2023-04-15T08:34:02;7.30;;;0.70;;
67544;SDS011;54380;47.770;11.150;2023-04-15T08:36:30;3.70;;;0.40;;
67544;SDS011;54380;47.770;11.150;2023-04-15T08:38:57;5.15;;;0.60;;
67544;SDS011;54380;47.770;11.150;2023-04-15T08:41:26;6.05;;;0.50;;
67544;SDS011;54380;47.770;11.150;2023-04-15T08:43:58;4.65;;;0.65;;
67544;SDS011;54380;47.770;11.150;2023-04-15T08:46:29;4.90;;;0.40;;
67544;SDS011;54380;47.770;11.150;2023-04-15T08:48:57;4.10;;;0.75;;
67544;SDS011;54380;47.770;11.150;2023-04-15T08:51:26;5.80;;;0.52;;
67544;SDS011;54380;47.770;11.150;2023-04-15T08:53:53;7.50;;;0.50;;
67544;SDS011;54380;47.770;11.150;2023-04-15T08:56:21;5.40;;;0.50;;
67544;SDS011;54380;47.770;11.150;2023-04-15T09:10:28;4.90;;;0.43;;
67544;SDS011;54380;47.770;11.150;2023-04-15T09:12:56;4.80;;;0.55;;
67544;SDS011;54380;47.770;11.150;2023-04-15T09:18:26;6.13;;;0.60;;
67544;SDS011;54380;47.770;11.150;2023-04-15T09:20:54;5.03;;;0.50;;
67544;SDS011;54380;47.770;11.150;2023-04-15T09:52:12;6.45;;;0.98;;
67544;SDS011;54380;47.770;11.150;2023-04-15T09:57:35;4.78;;;0.70;;
67544;SDS011;54380;47.770;11.150;2023-04-15T10:00:04;8.15;;;1.50;;
67544;SDS011;54380;47.770;11.150;2023-04-15T10:02:32;4.75;;;0.70;;
67544;SDS011;54380;47.770;11.150;2023-04-15T10:05:00;5.60;;;0.65;;
67544;SDS011;54380;47.770;11.150;2023-04-15T10:07:29;7.15;;;0.77;;
67544;SDS011;54380;47.770;11.150;2023-04-15T10:09:56;4.68;;;0.50;;
67544;SDS011;54380;47.770;11.150;2023-04-15T10:12:26;5.53;;;0.90;;
67544;SDS011;54380;47.770;11.150;2023-04-15T10:14:55;6.65;;;0.88;;
